Terminal Aerodrome Forecast
Issued by NWS

Home | Current Version | Previous Version | Text Only | Print | Product List | Glossary On
Versions: 1 2 3 4 5 6 7 8 9 10 11 12 13 14 15 16 17 18 19 20
162
FTUS43 KDLH 152320
TAFHIB
TAF
KHIB 152320Z 1600/1624 32012KT P6SM OVC100
     FM160700 30008KT P6SM SKC
     FM161600 25010KT P6SM SKC
     FM162000 23012G18KT P6SM SKC=

USA.gov is the U.S. government's official web portal to all federal, state and local government web resources and services.